sensor_id;sensor_type;location;lat;lon;timestamp;temperature;humidity
5415;DHT22;2730;51.512;7.504;2023-07-31T00:00:08;16.10;99.90
5415;DHT22;2730;51.512;7.504;2023-07-31T00:02:35;16.10;99.90
5415;DHT22;2730;51.512;7.504;2023-07-31T00:05:02;16.10;99.90
5415;DHT22;2730;51.512;7.504;2023-07-31T00:07:29;16.10;99.90
5415;DHT22;2730;51.512;7.504;2023-07-31T00:09:57;16.10;99.90
5415;DHT22;2730;51.512;7.504;2023-07-31T00:12:24;16.20;99.90
5415;DHT22;2730;51.512;7.504;2023-07-31T00:14:51;16.20;99.90
5415;DHT22;2730;51.512;7.504;2023-07-31T00:17:18;16.20;99.90
5415;DHT22;2730;51.512;7.504;2023-07-31T00:19:44;16.20;99.90
5415;DHT22;2730;51.512;7.504;2023-07-31T00:22:11;16.20;99.90
5415;DHT22;2730;51.512;7.504;2023-07-31T00:24:38;16.20;99.90
5415;DHT22;2730;51.512;7.504;2023-07-31T00:27:06;16.10;99.90
5415;DHT22;2730;51.512;7.504;2023-07-31T00:29:33;16.10;99.90
5415;DHT22;2730;51.512;7.504;2023-07-31T00:32:00;16.10;99.90
5415;DHT22;2730;51.512;7.504;2023-07-31T00:34:26;16.10;99.90
5415;DHT22;2730;51.512;7.504;2023-07-31T00:36:53;16.10;99.90
5415;DHT22;2730;51.512;7.504;2023-07-31T00:39:20;16.10;99.90
5415;DHT22;2730;51.512;7.504;2023-07-31T00:41:47;16.10;99.90
5415;DHT22;2730;51.512;7.504;2023-07-31T00:44:15;16.10;99.90
5415;DHT22;2730;51.512;7.504;2023-07-31T00:46:42;16.10;99.90
5415;DHT22;2730;51.512;7.504;2023-07-31T00:49:09;16.10;99.90
5415;DHT22;2730;51.512;7.504;2023-07-31T00:51:36;16.10;99.90
5415;DHT22;2730;51.512;7.504;2023-07-31T00:54:04;16.00;99.90
5415;DHT22;2730;51.512;7.504;2023-07-31T00:56:30;16.00;99.90
5415;DHT22;2730;51.512;7.504;2023-07-31T00:58:57;16.00;99.90
5415;DHT22;2730;51.512;7.504;2023-07-31T01:01:25;16.00;99.90
5415;DHT22;2730;51.512;7.504;2023-07-31T01:03:53;16.00;99.90
5415;DHT22;2730;51.512;7.504;2023-07-31T01:06:26;16.00;99.90
5415;DHT22;2730;51.512;7.504;2023-07-31T01:09:01;16.00;99.90
5415;DHT22;2730;51.512;7.504;2023-07-31T01:11:31;16.00;99.90
5415;DHT22;2730;51.512;7.504;2023-07-31T01:13:59;16.00;99.90
5415;DHT22;2730;51.512;7.504;2023-07-31T01:16:28;16.00;99.90
5415;DHT22;2730;51.512;7.504;2023-07-31T01:18:54;16.10;99.90
5415;DHT22;2730;51.512;7.504;2023-07-31T01:21:47;16.10;99.90
5415;DHT22;2730;51.512;7.504;2023-07-31T01:24:21;16.10;99.90
5415;DHT22;2730;51.512;7.504;2023-07-31T01:26:55;16.10;99.90
5415;DHT22;2730;51.512;7.504;2023-07-31T01:29:28;16.10;99.90
5415;DHT22;2730;51.512;7.504;2023-07-31T01:31:56;16.00;99.90
5415;DHT22;2730;51.512;7.504;2023-07-31T01:34:26;16.10;99.90
5415;DHT22;2730;51.512;7.504;2023-07-31T01:36:54;16.10;99.90
5415;DHT22;2730;51.512;7.504;2023-07-31T01:39:21;16.10;99.90
5415;DHT22;2730;51.512;7.504;2023-07-31T01:41:47;16.10;99.90
5415;DHT22;2730;51.512;7.504;2023-07-31T01:44:16;16.10;99.90
5415;DHT22;2730;51.512;7.504;2023-07-31T01:46:42;16.10;99.90
5415;DHT22;2730;51.512;7.504;2023-07-31T01:49:09;16.10;99.90
5415;DHT22;2730;51.512;7.504;2023-07-31T01:51:36;16.10;99.90
5415;DHT22;2730;51.512;7.504;2023-07-31T01:54:03;16.10;99.90
5415;DHT22;2730;51.512;7.504;2023-07-31T01:56:30;16.10;99.90
5415;DHT22;2730;51.512;7.504;2023-07-31T01:58:57;16.10;99.90
5415;DHT22;2730;51.512;7.504;2023-07-31T02:01:25;16.10;99.90
5415;DHT22;2730;51.512;7.504;2023-07-31T02:03:52;16.10;99.90
5415;DHT22;2730;51.512;7.504;2023-07-31T02:06:19;16.10;99.90
5415;DHT22;2730;51.512;7.504;2023-07-31T02:08:46;16.10;99.90
5415;DHT22;2730;51.512;7.504;2023-07-31T02:11:13;16.10;99.90
5415;DHT22;2730;51.512;7.504;2023-07-31T02:13:39;16.10;99.90
5415;DHT22;2730;51.512;7.504;2023-07-31T02:16:06;16.20;99.90
5415;DHT22;2730;51.512;7.504;2023-07-31T02:18:34;16.20;99.90
5415;DHT22;2730;51.512;7.504;2023-07-31T02:21:01;16.20;99.90
5415;DHT22;2730;51.512;7.504;2023-07-31T02:23:28;16.20;99.90
5415;DHT22;2730;51.512;7.504;2023-07-31T02:25:55;16.20;99.90
5415;DHT22;2730;51.512;7.504;2023-07-31T02:28:21;16.20;99.90
5415;DHT22;2730;51.512;7.504;2023-07-31T02:30:50;16.20;99.90
5415;DHT22;2730;51.512;7.504;2023-07-31T02:33:18;16.30;99.90
5415;DHT22;2730;51.512;7.504;2023-07-31T02:35:47;16.30;99.90
5415;DHT22;2730;51.512;7.504;2023-07-31T02:38:13;16.30;99.90
5415;DHT22;2730;51.512;7.504;2023-07-31T02:40:40;16.30;99.90
5415;DHT22;2730;51.512;7.504;2023-07-31T02:43:07;16.30;99.90
5415;DHT22;2730;51.512;7.504;2023-07-31T02:45:34;16.30;99.90
5415;DHT22;2730;51.512;7.504;2023-07-31T02:48:01;16.30;99.90
5415;DHT22;2730;51.512;7.504;2023-07-31T02:50:28;16.40;99.90
5415;DHT22;2730;51.512;7.504;2023-07-31T02:52:56;16.40;99.90
5415;DHT22;2730;51.512;7.504;2023-07-31T02:55:23;16.40;99.90
5415;DHT22;2730;51.512;7.504;2023-07-31T02:57:50;16.40;99.90
5415;DHT22;2730;51.512;7.504;2023-07-31T03:00:18;16.40;99.90
5415;DHT22;2730;51.512;7.504;2023-07-31T03:02:44;16.50;99.90
5415;DHT22;2730;51.512;7.504;2023-07-31T03:05:11;16.40;99.90
5415;DHT22;2730;51.512;7.504;2023-07-31T03:07:38;16.40;99.90
5415;DHT22;2730;51.512;7.504;2023-07-31T03:10:07;16.50;99.90
5415;DHT22;2730;51.512;7.504;2023-07-31T03:12:34;16.50;99.90
5415;DHT22;2730;51.512;7.504;2023-07-31T03:15:01;16.50;99.90
5415;DHT22;2730;51.512;7.504;2023-07-31T03:17:28;16.50;99.90
5415;DHT22;2730;51.512;7.504;2023-07-31T03:19:54;16.50;99.90
5415;DHT22;2730;51.512;7.504;2023-07-31T03:22:21;16.50;99.90
5415;DHT22;2730;51.512;7.504;2023-07-31T03:24:48;16.40;99.90
5415;DHT22;2730;51.512;7.504;2023-07-31T03:27:16;16.50;99.90
5415;DHT22;2730;51.512;7.504;2023-07-31T03:29:43;16.50;99.90
5415;DHT22;2730;51.512;7.504;2023-07-31T03:32:09;16.50;99.90
5415;DHT22;2730;51.512;7.504;2023-07-31T03:34:36;16.50;99.90
5415;DHT22;2730;51.512;7.504;2023-07-31T03:37:03;16.50;99.90
5415;DHT22;2730;51.512;7.504;2023-07-31T03:39:31;16.50;99.90
5415;DHT22;2730;51.512;7.504;2023-07-31T03:41:57;16.60;99.90
5415;DHT22;2730;51.512;7.504;2023-07-31T03:44:26;16.60;99.90
5415;DHT22;2730;51.512;7.504;2023-07-31T03:46:52;16.60;99.90
5415;DHT22;2730;51.512;7.504;2023-07-31T03:49:19;16.50;99.90
5415;DHT22;2730;51.512;7.504;2023-07-31T03:51:46;16.60;99.90
5415;DHT22;2730;51.512;7.504;2023-07-31T03:54:13;16.60;99.90
5415;DHT22;2730;51.512;7.504;2023-07-31T03:56:40;16.60;99.90
5415;DHT22;2730;51.512;7.504;2023-07-31T03:59:06;16.60;99.90
5415;DHT22;2730;51.512;7.504;2023-07-31T04:01:34;16.60;99.90
5415;DHT22;2730;51.512;7.504;2023-07-31T04:04:01;16.70;99.90
5415;DHT22;2730;51.512;7.504;2023-07-31T04:06:28;16.70;99.90
5415;DHT22;2730;51.512;7.504;2023-07-31T04:08:55;16.70;99.90
5415;DHT22;2730;51.512;7.504;2023-07-31T04:11:22;16.70;99.90
5415;DHT22;2730;51.512;7.504;2023-07-31T04:13:48;16.70;99.90
5415;DHT22;2730;51.512;7.504;2023-07-31T04:16:15;16.70;99.90
5415;DHT22;2730;51.512;7.504;2023-07-31T04:18:43;16.80;99.90
5415;DHT22;2730;51.512;7.504;2023-07-31T04:21:10;16.70;99.90
5415;DHT22;2730;51.512;7.504;2023-07-31T04:23:37;16.80;99.90
5415;DHT22;2730;51.512;7.504;2023-07-31T04:26:04;16.90;99.90
5415;DHT22;2730;51.512;7.504;2023-07-31T04:28:31;16.90;99.90
5415;DHT22;2730;51.512;7.504;2023-07-31T04:30:58;17.00;99.90
5415;DHT22;2730;51.512;7.504;2023-07-31T04:33:25;16.90;99.90
5415;DHT22;2730;51.512;7.504;2023-07-31T04:35:53;17.00;99.90
5415;DHT22;2730;51.512;7.504;2023-07-31T04:38:21;17.00;99.90
5415;DHT22;2730;51.512;7.504;2023-07-31T04:40:49;17.10;99.90
5415;DHT22;2730;51.512;7.504;2023-07-31T04:43:15;17.10;99.90
5415;DHT22;2730;51.512;7.504;2023-07-31T04:45:44;17.10;99.90
5415;DHT22;2730;51.512;7.504;2023-07-31T04:48:11;17.20;99.90
5415;DHT22;2730;51.512;7.504;2023-07-31T04:50:38;17.20;99.90
5415;DHT22;2730;51.512;7.504;2023-07-31T04:53:06;17.20;99.90
5415;DHT22;2730;51.512;7.504;2023-07-31T04:55:33;17.20;99.90
5415;DHT22;2730;51.512;7.504;2023-07-31T04:57:59;17.10;99.90
5415;DHT22;2730;51.512;7.504;2023-07-31T05:00:26;17.10;99.90
5415;DHT22;2730;51.512;7.504;2023-07-31T05:02:53;17.20;99.90
5415;DHT22;2730;51.512;7.504;2023-07-31T05:05:20;17.20;99.90
5415;DHT22;2730;51.512;7.504;2023-07-31T05:07:47;17.20;99.90
5415;DHT22;2730;51.512;7.504;2023-07-31T05:10:15;17.10;99.90
5415;DHT22;2730;51.512;7.504;2023-07-31T05:12:42;17.10;99.90
5415;DHT22;2730;51.512;7.504;2023-07-31T05:15:09;17.10;99.90
5415;DHT22;2730;51.512;7.504;2023-07-31T05:17:36;17.10;99.90
5415;DHT22;2730;51.512;7.504;2023-07-31T05:20:03;17.10;99.90
5415;DHT22;2730;51.512;7.504;2023-07-31T05:22:30;17.10;99.90
5415;DHT22;2730;51.512;7.504;2023-07-31T05:24:57;17.10;99.90
5415;DHT22;2730;51.512;7.504;2023-07-31T05:27:25;17.00;99.90
5415;DHT22;2730;51.512;7.504;2023-07-31T05:29:51;17.00;99.90
5415;DHT22;2730;51.512;7.504;2023-07-31T05:32:18;17.10;99.90
5415;DHT22;2730;51.512;7.504;2023-07-31T05:34:45;17.10;99.90
5415;DHT22;2730;51.512;7.504;2023-07-31T05:37:12;17.10;99.90
5415;DHT22;2730;51.512;7.504;2023-07-31T05:39:38;17.20;99.90
5415;DHT22;2730;51.512;7.504;2023-07-31T05:42:05;17.20;99.90
5415;DHT22;2730;51.512;7.504;2023-07-31T05:44:34;17.30;99.90
5415;DHT22;2730;51.512;7.504;2023-07-31T05:47:01;17.30;99.90
5415;DHT22;2730;51.512;7.504;2023-07-31T05:49:28;17.30;99.90
5415;DHT22;2730;51.512;7.504;2023-07-31T05:51:54;17.30;99.90
5415;DHT22;2730;51.512;7.504;2023-07-31T05:54:21;17.30;99.90
5415;DHT22;2730;51.512;7.504;2023-07-31T05:56:48;17.40;99.90
5415;DHT22;2730;51.512;7.504;2023-07-31T05:59:16;17.30;99.90
5415;DHT22;2730;51.512;7.504;2023-07-31T06:01:44;17.40;99.90
5415;DHT22;2730;51.512;7.504;2023-07-31T06:04:11;17.40;99.90
5415;DHT22;2730;51.512;7.504;2023-07-31T06:06:38;17.40;99.90
5415;DHT22;2730;51.512;7.504;2023-07-31T06:09:05;17.40;99.90
5415;DHT22;2730;51.512;7.504;2023-07-31T06:11:32;17.40;99.90
5415;DHT22;2730;51.512;7.504;2023-07-31T06:13:59;17.30;99.90
5415;DHT22;2730;51.512;7.504;2023-07-31T06:16:26;17.30;99.90
5415;DHT22;2730;51.512;7.504;2023-07-31T06:18:54;17.10;99.90
5415;DHT22;2730;51.512;7.504;2023-07-31T06:21:21;17.10;99.90
5415;DHT22;2730;51.512;7.504;2023-07-31T06:23:48;17.00;99.90
5415;DHT22;2730;51.512;7.504;2023-07-31T06:26:15;17.00;99.90
5415;DHT22;2730;51.512;7.504;2023-07-31T06:28:41;17.00;99.90
5415;DHT22;2730;51.512;7.504;2023-07-31T06:31:08;17.00;99.90
5415;DHT22;2730;51.512;7.504;2023-07-31T06:33:35;17.00;99.90
5415;DHT22;2730;51.512;7.504;2023-07-31T06:36:04;17.10;99.90
5415;DHT22;2730;51.512;7.504;2023-07-31T06:38:31;17.20;99.90
5415;DHT22;2730;51.512;7.504;2023-07-31T06:40:57;17.30;99.90
5415;DHT22;2730;51.512;7.504;2023-07-31T06:43:24;17.30;99.90
5415;DHT22;2730;51.512;7.504;2023-07-31T06:45:51;17.40;99.90
5415;DHT22;2730;51.512;7.504;2023-07-31T06:48:18;17.40;99.90
5415;DHT22;2730;51.512;7.504;2023-07-31T06:50:45;17.50;99.90
5415;DHT22;2730;51.512;7.504;2023-07-31T06:53:13;17.50;99.90
5415;DHT22;2730;51.512;7.504;2023-07-31T06:55:40;17.50;99.90
5415;DHT22;2730;51.512;7.504;2023-07-31T06:58:06;17.50;99.90
5415;DHT22;2730;51.512;7.504;2023-07-31T07:00:33;17.50;99.90
5415;DHT22;2730;51.512;7.504;2023-07-31T07:03:00;17.50;99.90
5415;DHT22;2730;51.512;7.504;2023-07-31T07:05:27;17.50;99.90
5415;DHT22;2730;51.512;7.504;2023-07-31T07:07:53;17.60;99.90
5415;DHT22;2730;51.512;7.504;2023-07-31T07:10:21;17.70;99.90
5415;DHT22;2730;51.512;7.504;2023-07-31T07:12:48;17.70;99.90
5415;DHT22;2730;51.512;7.504;2023-07-31T07:15:15;17.70;99.90
5415;DHT22;2730;51.512;7.504;2023-07-31T07:17:42;17.60;99.90
5415;DHT22;2730;51.512;7.504;2023-07-31T07:20:09;17.60;99.90
5415;DHT22;2730;51.512;7.504;2023-07-31T07:22:36;17.60;99.90
5415;DHT22;2730;51.512;7.504;2023-07-31T07:25:03;17.60;99.90
5415;DHT22;2730;51.512;7.504;2023-07-31T07:27:31;17.60;99.90
5415;DHT22;2730;51.512;7.504;2023-07-31T07:29:58;17.60;99.90
5415;DHT22;2730;51.512;7.504;2023-07-31T07:32:25;17.70;99.90
5415;DHT22;2730;51.512;7.504;2023-07-31T07:34:52;17.60;99.90
5415;DHT22;2730;51.512;7.504;2023-07-31T07:37:19;17.50;99.90
5415;DHT22;2730;51.512;7.504;2023-07-31T07:39:45;17.40;99.90
5415;DHT22;2730;51.512;7.504;2023-07-31T07:42:12;17.40;99.90
5415;DHT22;2730;51.512;7.504;2023-07-31T07:44:40;17.40;99.90
5415;DHT22;2730;51.512;7.504;2023-07-31T07:47:07;17.40;99.90
5415;DHT22;2730;51.512;7.504;2023-07-31T07:49:34;17.30;99.90
5415;DHT22;2730;51.512;7.504;2023-07-31T07:52:01;17.40;99.90
5415;DHT22;2730;51.512;7.504;2023-07-31T07:54:28;17.30;99.90
5415;DHT22;2730;51.512;7.504;2023-07-31T07:56:55;17.40;99.90
5415;DHT22;2730;51.512;7.504;2023-07-31T07:59:22;17.30;99.90
5415;DHT22;2730;51.512;7.504;2023-07-31T08:01:50;17.40;99.90
5415;DHT22;2730;51.512;7.504;2023-07-31T08:04:17;17.40;99.90
5415;DHT22;2730;51.512;7.504;2023-07-31T08:06:43;17.40;99.90
5415;DHT22;2730;51.512;7.504;2023-07-31T08:09:10;17.50;99.90
5415;DHT22;2730;51.512;7.504;2023-07-31T08:11:37;17.50;99.90
5415;DHT22;2730;51.512;7.504;2023-07-31T08:14:04;17.60;99.90
5415;DHT22;2730;51.512;7.504;2023-07-31T08:16:31;17.50;99.90
5415;DHT22;2730;51.512;7.504;2023-07-31T08:18:59;17.50;99.90
5415;DHT22;2730;51.512;7.504;2023-07-31T08:21:25;17.60;99.90
5415;DHT22;2730;51.512;7.504;2023-07-31T08:23:52;17.70;99.90
5415;DHT22;2730;51.512;7.504;2023-07-31T08:26:19;17.80;99.90
5415;DHT22;2730;51.512;7.504;2023-07-31T08:28:46;17.80;99.90
5415;DHT22;2730;51.512;7.504;2023-07-31T08:31:13;17.80;99.90
5415;DHT22;2730;51.512;7.504;2023-07-31T08:33:40;17.70;99.90
5415;DHT22;2730;51.512;7.504;2023-07-31T08:36:08;17.60;99.90
5415;DHT22;2730;51.512;7.504;2023-07-31T08:38:35;17.60;99.90
5415;DHT22;2730;51.512;7.504;2023-07-31T08:41:03;17.50;99.90
5415;DHT22;2730;51.512;7.504;2023-07-31T08:43:30;17.50;99.90
5415;DHT22;2730;51.512;7.504;2023-07-31T08:45:57;17.50;99.90
5415;DHT22;2730;51.512;7.504;2023-07-31T08:48:24;17.50;99.90
5415;DHT22;2730;51.512;7.504;2023-07-31T08:50:52;17.70;99.90
5415;DHT22;2730;51.512;7.504;2023-07-31T08:53:21;17.90;99.90
5415;DHT22;2730;51.512;7.504;2023-07-31T08:55:49;18.00;99.90
5415;DHT22;2730;51.512;7.504;2023-07-31T08:58:17;17.90;99.90
5415;DHT22;2730;51.512;7.504;2023-07-31T09:00:46;17.90;99.90
5415;DHT22;2730;51.512;7.504;2023-07-31T09:03:14;18.00;99.90
5415;DHT22;2730;51.512;7.504;2023-07-31T09:05:43;18.00;99.90
5415;DHT22;2730;51.512;7.504;2023-07-31T09:08:11;18.00;99.90
5415;DHT22;2730;51.512;7.504;2023-07-31T09:10:42;18.00;99.90
5415;DHT22;2730;51.512;7.504;2023-07-31T09:13:09;17.80;99.90
5415;DHT22;2730;51.512;7.504;2023-07-31T09:15:36;17.60;99.90
5415;DHT22;2730;51.512;7.504;2023-07-31T09:18:05;17.50;99.90
5415;DHT22;2730;51.512;7.504;2023-07-31T09:20:32;17.40;99.90
5415;DHT22;2730;51.512;7.504;2023-07-31T09:23:06;17.40;99.90
5415;DHT22;2730;51.512;7.504;2023-07-31T09:25:34;17.30;99.90
5415;DHT22;2730;51.512;7.504;2023-07-31T09:28:03;17.40;99.90
5415;DHT22;2730;51.512;7.504;2023-07-31T09:30:31;17.30;99.90
5415;DHT22;2730;51.512;7.504;2023-07-31T09:33:03;17.40;99.90
5415;DHT22;2730;51.512;7.504;2023-07-31T09:35:32;17.40;99.90
5415;DHT22;2730;51.512;7.504;2023-07-31T09:38:01;17.40;99.90
5415;DHT22;2730;51.512;7.504;2023-07-31T09:40:31;17.40;99.90
5415;DHT22;2730;51.512;7.504;2023-07-31T09:42:59;17.40;99.90
5415;DHT22;2730;51.512;7.504;2023-07-31T09:45:28;17.30;99.90
5415;DHT22;2730;51.512;7.504;2023-07-31T09:47:55;17.50;99.90
5415;DHT22;2730;51.512;7.504;2023-07-31T09:50:23;17.40;99.90
5415;DHT22;2730;51.512;7.504;2023-07-31T09:52:51;17.50;99.90
5415;DHT22;2730;51.512;7.504;2023-07-31T09:55:19;17.50;99.90
5415;DHT22;2730;51.512;7.504;2023-07-31T09:57:47;17.50;99.90
5415;DHT22;2730;51.512;7.504;2023-07-31T10:00:15;17.60;99.90
5415;DHT22;2730;51.512;7.504;2023-07-31T10:02:46;17.70;99.90
5415;DHT22;2730;51.512;7.504;2023-07-31T10:05:14;17.70;99.90
5415;DHT22;2730;51.512;7.504;2023-07-31T10:07:43;17.80;99.90
5415;DHT22;2730;51.512;7.504;2023-07-31T10:10:13;17.90;99.90
5415;DHT22;2730;51.512;7.504;2023-07-31T10:12:42;17.90;99.90
5415;DHT22;2730;51.512;7.504;2023-07-31T10:15:10;18.00;99.90
5415;DHT22;2730;51.512;7.504;2023-07-31T10:17:38;18.00;99.90
5415;DHT22;2730;51.512;7.504;2023-07-31T10:20:07;18.00;99.90
5415;DHT22;2730;51.512;7.504;2023-07-31T10:22:34;18.10;99.90
5415;DHT22;2730;51.512;7.504;2023-07-31T10:25:01;18.20;99.90
5415;DHT22;2730;51.512;7.504;2023-07-31T10:27:28;18.20;99.90
5415;DHT22;2730;51.512;7.504;2023-07-31T10:29:56;18.00;99.90
5415;DHT22;2730;51.512;7.504;2023-07-31T10:32:24;18.20;99.90
5415;DHT22;2730;51.512;7.504;2023-07-31T10:34:52;18.30;99.90
5415;DHT22;2730;51.512;7.504;2023-07-31T10:37:25;18.30;99.90
5415;DHT22;2730;51.512;7.504;2023-07-31T10:39:57;18.30;99.90
5415;DHT22;2730;51.512;7.504;2023-07-31T10:42:29;18.30;99.90
5415;DHT22;2730;51.512;7.504;2023-07-31T10:44:58;18.20;99.90
5415;DHT22;2730;51.512;7.504;2023-07-31T10:47:25;18.20;99.90
5415;DHT22;2730;51.512;7.504;2023-07-31T10:49:52;18.20;99.90
5415;DHT22;2730;51.512;7.504;2023-07-31T10:52:20;18.20;99.90
5415;DHT22;2730;51.512;7.504;2023-07-31T10:54:50;18.30;99.90
5415;DHT22;2730;51.512;7.504;2023-07-31T10:57:37;18.20;99.90
5415;DHT22;2730;51.512;7.504;2023-07-31T11:00:18;18.20;99.90
5415;DHT22;2730;51.512;7.504;2023-07-31T11:02:56;18.20;99.90
5415;DHT22;2730;51.512;7.504;2023-07-31T11:05:44;18.00;99.90
5415;DHT22;2730;51.512;7.504;2023-07-31T11:08:12;17.90;99.90
5415;DHT22;2730;51.512;7.504;2023-07-31T11:10:40;17.90;99.90
5415;DHT22;2730;51.512;7.504;2023-07-31T11:13:07;17.80;99.90
5415;DHT22;2730;51.512;7.504;2023-07-31T11:15:34;17.70;99.90
5415;DHT22;2730;51.512;7.504;2023-07-31T11:18:01;17.80;99.90
5415;DHT22;2730;51.512;7.504;2023-07-31T11:20:31;17.70;99.90
5415;DHT22;2730;51.512;7.504;2023-07-31T11:23:00;17.70;99.90
5415;DHT22;2730;51.512;7.504;2023-07-31T11:25:29;17.80;99.90
5415;DHT22;2730;51.512;7.504;2023-07-31T11:27:57;17.80;99.90
5415;DHT22;2730;51.512;7.504;2023-07-31T11:30:24;17.70;99.90
5415;DHT22;2730;51.512;7.504;2023-07-31T11:32:51;17.60;99.90
5415;DHT22;2730;51.512;7.504;2023-07-31T11:35:18;17.60;99.90
5415;DHT22;2730;51.512;7.504;2023-07-31T11:37:44;17.60;99.90
5415;DHT22;2730;51.512;7.504;2023-07-31T11:40:12;17.60;99.90
5415;DHT22;2730;51.512;7.504;2023-07-31T11:42:38;17.70;99.90
5415;DHT22;2730;51.512;7.504;2023-07-31T11:45:08;17.70;99.90
5415;DHT22;2730;51.512;7.504;2023-07-31T11:47:36;17.80;99.90
5415;DHT22;2730;51.512;7.504;2023-07-31T11:50:04;17.80;99.90
5415;DHT22;2730;51.512;7.504;2023-07-31T11:52:35;17.90;99.90
5415;DHT22;2730;51.512;7.504;2023-07-31T11:55:04;18.00;99.90
5415;DHT22;2730;51.512;7.504;2023-07-31T11:57:31;18.00;99.90
5415;DHT22;2730;51.512;7.504;2023-07-31T11:59:59;18.10;99.90
5415;DHT22;2730;51.512;7.504;2023-07-31T12:02:27;18.20;99.90
5415;DHT22;2730;51.512;7.504;2023-07-31T12:04:54;18.20;99.90
5415;DHT22;2730;51.512;7.504;2023-07-31T12:07:20;18.30;99.90
5415;DHT22;2730;51.512;7.504;2023-07-31T12:09:51;18.30;99.90
5415;DHT22;2730;51.512;7.504;2023-07-31T12:12:20;18.50;99.90
5415;DHT22;2730;51.512;7.504;2023-07-31T12:14:47;18.50;99.90
5415;DHT22;2730;51.512;7.504;2023-07-31T12:17:16;18.70;99.90
5415;DHT22;2730;51.512;7.504;2023-07-31T12:19:44;18.80;99.90
5415;DHT22;2730;51.512;7.504;2023-07-31T12:22:12;18.80;99.90
5415;DHT22;2730;51.512;7.504;2023-07-31T12:24:40;18.90;99.90
5415;DHT22;2730;51.512;7.504;2023-07-31T12:27:11;19.00;99.90
5415;DHT22;2730;51.512;7.504;2023-07-31T12:29:38;19.20;99.90
5415;DHT22;2730;51.512;7.504;2023-07-31T12:32:19;19.30;99.90
5415;DHT22;2730;51.512;7.504;2023-07-31T12:34:47;19.30;99.90
5415;DHT22;2730;51.512;7.504;2023-07-31T12:37:14;19.50;99.90
5415;DHT22;2730;51.512;7.504;2023-07-31T12:39:41;19.50;99.90
5415;DHT22;2730;51.512;7.504;2023-07-31T12:42:08;19.50;99.90
5415;DHT22;2730;51.512;7.504;2023-07-31T12:44:35;19.60;99.90
5415;DHT22;2730;51.512;7.504;2023-07-31T12:47:01;19.60;99.90
5415;DHT22;2730;51.512;7.504;2023-07-31T12:49:29;19.40;99.90
5415;DHT22;2730;51.512;7.504;2023-07-31T12:51:57;19.20;99.90
5415;DHT22;2730;51.512;7.504;2023-07-31T12:54:24;19.00;99.90
5415;DHT22;2730;51.512;7.504;2023-07-31T12:56:51;19.00;99.90
5415;DHT22;2730;51.512;7.504;2023-07-31T12:59:17;18.90;99.90
5415;DHT22;2730;51.512;7.504;2023-07-31T13:01:44;18.80;99.90
5415;DHT22;2730;51.512;7.504;2023-07-31T13:04:11;18.60;99.90
5415;DHT22;2730;51.512;7.504;2023-07-31T13:06:38;18.40;99.90
5415;DHT22;2730;51.512;7.504;2023-07-31T13:09:06;18.40;99.90
5415;DHT22;2730;51.512;7.504;2023-07-31T13:11:33;18.30;99.90
5415;DHT22;2730;51.512;7.504;2023-07-31T13:13:59;18.20;99.90
5415;DHT22;2730;51.512;7.504;2023-07-31T13:16:26;18.20;99.90
5415;DHT22;2730;51.512;7.504;2023-07-31T13:18:53;18.20;99.90
5415;DHT22;2730;51.512;7.504;2023-07-31T13:21:20;18.30;99.90
5415;DHT22;2730;51.512;7.504;2023-07-31T13:23:47;18.40;99.90
5415;DHT22;2730;51.512;7.504;2023-07-31T13:26:15;18.50;99.90
5415;DHT22;2730;51.512;7.504;2023-07-31T13:28:42;18.70;99.90
5415;DHT22;2730;51.512;7.504;2023-07-31T13:31:09;18.80;99.90
5415;DHT22;2730;51.512;7.504;2023-07-31T13:33:36;18.90;99.90
5415;DHT22;2730;51.512;7.504;2023-07-31T13:36:03;19.00;99.90
5415;DHT22;2730;51.512;7.504;2023-07-31T13:38:30;19.00;99.90
5415;DHT22;2730;51.512;7.504;2023-07-31T13:40:57;18.90;99.90
5415;DHT22;2730;51.512;7.504;2023-07-31T13:43:25;19.00;99.90
5415;DHT22;2730;51.512;7.504;2023-07-31T13:45:51;18.80;99.90
5415;DHT22;2730;51.512;7.504;2023-07-31T13:48:18;18.70;99.90
5415;DHT22;2730;51.512;7.504;2023-07-31T13:50:44;18.60;99.90
5415;DHT22;2730;51.512;7.504;2023-07-31T13:53:11;18.60;99.90
5415;DHT22;2730;51.512;7.504;2023-07-31T13:55:38;18.70;99.90
5415;DHT22;2730;51.512;7.504;2023-07-31T13:58:05;18.80;99.90
5415;DHT22;2730;51.512;7.504;2023-07-31T14:00:33;18.80;99.90
5415;DHT22;2730;51.512;7.504;2023-07-31T14:03:00;18.90;99.90
5415;DHT22;2730;51.512;7.504;2023-07-31T14:05:27;18.90;99.90
5415;DHT22;2730;51.512;7.504;2023-07-31T14:07:54;19.00;99.90
5415;DHT22;2730;51.512;7.504;2023-07-31T14:10:21;19.10;99.90
5415;DHT22;2730;51.512;7.504;2023-07-31T14:12:47;19.00;99.90
5415;DHT22;2730;51.512;7.504;2023-07-31T14:15:14;19.00;99.90
5415;DHT22;2730;51.512;7.504;2023-07-31T14:17:42;19.00;99.90
5415;DHT22;2730;51.512;7.504;2023-07-31T14:20:10;19.00;99.90
5415;DHT22;2730;51.512;7.504;2023-07-31T14:22:37;19.10;99.90
5415;DHT22;2730;51.512;7.504;2023-07-31T14:25:05;19.30;99.90
5415;DHT22;2730;51.512;7.504;2023-07-31T14:27:32;19.30;99.90
5415;DHT22;2730;51.512;7.504;2023-07-31T14:29:58;19.40;99.90
5415;DHT22;2730;51.512;7.504;2023-07-31T14:32:25;19.60;99.90
5415;DHT22;2730;51.512;7.504;2023-07-31T14:34:53;19.80;99.90
5415;DHT22;2730;51.512;7.504;2023-07-31T14:37:20;19.90;99.90
5415;DHT22;2730;51.512;7.504;2023-07-31T14:39:47;20.10;99.90
5415;DHT22;2730;51.512;7.504;2023-07-31T14:42:15;20.30;99.90
5415;DHT22;2730;51.512;7.504;2023-07-31T14:44:43;20.30;99.90
5415;DHT22;2730;51.512;7.504;2023-07-31T14:47:12;20.40;99.90
5415;DHT22;2730;51.512;7.504;2023-07-31T14:49:39;20.40;99.90
5415;DHT22;2730;51.512;7.504;2023-07-31T14:52:07;20.40;99.90
5415;DHT22;2730;51.512;7.504;2023-07-31T14:54:34;20.60;99.90
5415;DHT22;2730;51.512;7.504;2023-07-31T14:57:01;20.60;99.90
5415;DHT22;2730;51.512;7.504;2023-07-31T14:59:28;20.70;99.90
5415;DHT22;2730;51.512;7.504;2023-07-31T15:01:55;20.70;99.90
5415;DHT22;2730;51.512;7.504;2023-07-31T15:04:22;20.50;99.90
5415;DHT22;2730;51.512;7.504;2023-07-31T15:06:49;20.30;99.90
5415;DHT22;2730;51.512;7.504;2023-07-31T15:09:17;20.20;99.90
5415;DHT22;2730;51.512;7.504;2023-07-31T15:11:44;20.00;99.90
5415;DHT22;2730;51.512;7.504;2023-07-31T15:14:11;20.00;99.90
5415;DHT22;2730;51.512;7.504;2023-07-31T15:16:38;19.80;99.90
5415;DHT22;2730;51.512;7.504;2023-07-31T15:19:04;19.80;99.90
5415;DHT22;2730;51.512;7.504;2023-07-31T15:21:31;19.70;99.90
5415;DHT22;2730;51.512;7.504;2023-07-31T15:23:58;19.70;99.90
5415;DHT22;2730;51.512;7.504;2023-07-31T15:26:26;19.70;99.90
5415;DHT22;2730;51.512;7.504;2023-07-31T15:28:57;19.80;99.90
5415;DHT22;2730;51.512;7.504;2023-07-31T15:31:26;19.80;99.90
5415;DHT22;2730;51.512;7.504;2023-07-31T15:33:53;19.90;99.90
5415;DHT22;2730;51.512;7.504;2023-07-31T15:36:20;19.90;99.90
5415;DHT22;2730;51.512;7.504;2023-07-31T15:38:47;20.00;99.90
5415;DHT22;2730;51.512;7.504;2023-07-31T15:41:16;20.20;99.90
5415;DHT22;2730;51.512;7.504;2023-07-31T15:43:44;20.30;99.90
5415;DHT22;2730;51.512;7.504;2023-07-31T15:46:13;20.40;99.90
5415;DHT22;2730;51.512;7.504;2023-07-31T15:48:39;20.30;99.90
5415;DHT22;2730;51.512;7.504;2023-07-31T15:51:07;20.30;99.90
5415;DHT22;2730;51.512;7.504;2023-07-31T15:53:34;20.20;99.90
5415;DHT22;2730;51.512;7.504;2023-07-31T15:56:00;20.10;99.90
5415;DHT22;2730;51.512;7.504;2023-07-31T15:58:27;20.10;99.90
5415;DHT22;2730;51.512;7.504;2023-07-31T16:00:56;20.10;99.90
5415;DHT22;2730;51.512;7.504;2023-07-31T16:03:23;20.00;99.90